createdAt,value
2019-03-29T00:00:24.560Z,102945.10
2019-03-29T00:03:32.316Z,102951.53
2019-03-29T00:06:40.372Z,102943.80
2019-03-29T00:09:48.121Z,102947.28
2019-03-29T00:12:57.039Z,102947.69
2019-03-29T00:16:14.632Z,102938.66
2019-03-29T00:19:20.617Z,102940.42
2019-03-29T00:22:28.280Z,102936.13
2019-03-29T00:25:36.015Z,102935.30
2019-03-29T00:28:52.980Z,102921.20
2019-03-29T00:32:00.805Z,102927.66
2019-03-29T00:35:08.712Z,102927.22
2019-03-29T00:38:25.721Z,102920.34
2019-03-29T00:41:33.667Z,102925.45
2019-03-29T00:44:41.892Z,102922.06
2019-03-29T00:47:49.553Z,102917.42
2019-03-29T00:50:58.325Z,102913.10
2019-03-29T00:54:06.718Z,102912.22
2019-03-29T00:57:14.396Z,102911.84
2019-03-29T01:00:22.444Z,102905.03
2019-03-29T01:03:39.313Z,102902.02
2019-03-29T01:06:56.105Z,102895.67
2019-03-29T01:10:13.081Z,102896.56
2019-03-29T01:13:21.147Z,102897.80
2019-03-29T01:16:28.931Z,102889.27
2019-03-29T01:19:45.820Z,102885.78
2019-03-29T01:22:53.656Z,102879.00
2019-03-29T01:26:01.407Z,102881.55
2019-03-29T01:29:18.937Z,102878.11
2019-03-29T01:32:26.763Z,102880.69
2019-03-29T01:35:34.588Z,102881.11
2019-03-29T01:38:42.987Z,102875.53
2019-03-29T01:42:00.196Z,102874.72
2019-03-29T01:45:09.154Z,102879.46
2019-03-29T01:48:16.847Z,102876.42
2019-03-29T01:51:24.631Z,102870.94
2019-03-29T01:54:41.672Z,102881.61
2019-03-29T01:57:49.507Z,102876.06
2019-03-29T02:00:57.257Z,102872.22
2019-03-29T02:04:06.044Z,102873.56
2019-03-29T02:07:23.417Z,102865.03
2019-03-29T02:10:31.330Z,102867.57
2019-03-29T02:13:39.269Z,102869.70
2019-03-29T02:16:56.267Z,102862.81
2019-03-29T02:20:04.342Z,102867.14
2019-03-29T02:23:12.097Z,102863.38
2019-03-29T02:26:19.282Z,102859.45
2019-03-29T02:29:27.041Z,102861.16
2019-03-29T02:32:35.016Z,102866.73
2019-03-29T02:35:52.179Z,102856.75
2019-03-29T02:39:00.102Z,102853.41
2019-03-29T02:42:07.831Z,102857.27
2019-03-29T02:45:25.326Z,102850.44
2019-03-29T02:48:33.232Z,102853.77
2019-03-29T02:51:41.021Z,102860.17
2019-03-29T02:54:48.797Z,102859.76
2019-03-29T02:57:56.548Z,102853.37
2019-03-29T03:01:13.669Z,102850.39
2019-03-29T03:04:21.510Z,102857.59
2019-03-29T03:07:29.385Z,102853.77
2019-03-29T03:10:46.448Z,102853.73
2019-03-29T03:13:54.107Z,102853.80
2019-03-29T03:17:02.201Z,102857.28
2019-03-29T03:20:20.150Z,102856.77
2019-03-29T03:23:28.091Z,102853.87
2019-03-29T03:26:36.090Z,102855.11
2019-03-29T03:29:42.782Z,102854.23
2019-03-29T03:32:50.635Z,102858.09
2019-03-29T03:35:58.450Z,102858.08
2019-03-29T03:39:30.555Z,102857.64
2019-03-29T03:42:25.287Z,102860.61
2019-03-29T03:45:42.554Z,102862.74
2019-03-29T03:48:50.424Z,102864.50
2019-03-29T03:51:58.372Z,102868.73
2019-03-29T03:55:15.224Z,102859.30
2019-03-29T03:58:23.305Z,102858.11
2019-03-29T04:01:31.267Z,102856.47
2019-03-29T04:04:39.038Z,102853.02
2019-03-29T04:07:46.690Z,102854.28
2019-03-29T04:10:54.546Z,102859.73
2019-03-29T04:14:02.199Z,102852.07
2019-03-29T04:17:09.886Z,102851.70
2019-03-29T04:20:17.707Z,102851.22
2019-03-29T04:23:25.417Z,102844.84
2019-03-29T04:26:33.343Z,102840.16
2019-03-29T04:29:50.330Z,102844.41
2019-03-29T04:33:11.101Z,102838.84
2019-03-29T04:36:17.035Z,102844.81
2019-03-29T04:39:24.744Z,102849.94
2019-03-29T04:42:41.738Z,102843.08
2019-03-29T04:45:59.043Z,102840.94
2019-03-29T04:49:06.867Z,102845.29
2019-03-29T04:52:14.535Z,102847.88
2019-03-29T04:55:31.787Z,102845.66
2019-03-29T04:58:39.443Z,102844.34
2019-03-29T05:01:47.443Z,102845.22
2019-03-29T05:04:55.279Z,102846.91
2019-03-29T05:08:03.199Z,102852.92
2019-03-29T05:11:20.309Z,102843.06
2019-03-29T05:14:28.051Z,102854.68
2019-03-29T05:17:35.954Z,102850.79
2019-03-29T05:20:52.901Z,102848.19
2019-03-29T05:24:09.955Z,102839.61
2019-03-29T05:27:17.965Z,102843.03
2019-03-29T05:30:25.849Z,102847.31
2019-03-29T05:33:33.772Z,102845.23
2019-03-29T05:36:41.783Z,102846.47
2019-03-29T05:39:49.682Z,102838.34
2019-03-29T05:42:57.432Z,102835.38
2019-03-29T05:46:14.557Z,102829.73
2019-03-29T05:49:22.335Z,102832.36
2019-03-29T05:52:30.128Z,102825.05
2019-03-29T05:55:48.455Z,102825.03
2019-03-29T05:59:05.802Z,102827.19
2019-03-29T06:02:13.617Z,102826.73
2019-03-29T06:05:21.535Z,102826.64
2019-03-29T06:08:44.570Z,102816.74
2019-03-29T06:11:52.384Z,102824.53
2019-03-29T06:15:00.389Z,102824.52
2019-03-29T06:18:17.289Z,102814.97
2019-03-29T06:21:25.252Z,102826.13
2019-03-29T06:24:33.000Z,102828.28
2019-03-29T06:27:56.479Z,102828.27
2019-03-29T06:31:04.266Z,102821.42
2019-03-29T06:34:12.331Z,102819.74
2019-03-29T06:37:20.916Z,102808.03
2019-03-29T06:40:28.681Z,102806.84
2019-03-29T06:43:36.513Z,102817.05
2019-03-29T06:46:53.638Z,102809.30
2019-03-29T06:50:01.387Z,102807.14
2019-03-29T06:53:09.428Z,102814.91
2019-03-29T06:56:26.389Z,102806.28
2019-03-29T06:59:34.240Z,102813.08
2019-03-29T07:02:41.921Z,102800.26
2019-03-29T07:05:59.214Z,102796.77
2019-03-29T07:09:07.736Z,102799.82
2019-03-29T07:12:24.894Z,102789.27
2019-03-29T07:15:32.641Z,102786.27
2019-03-29T07:18:40.452Z,102795.63
2019-03-29T07:21:57.576Z,102788.44
2019-03-29T07:25:05.903Z,102787.95
2019-03-29T07:28:13.477Z,102787.36
2019-03-29T07:31:30.283Z,102784.73
2019-03-29T07:34:38.128Z,102783.25
2019-03-29T07:37:46.082Z,102780.52
2019-03-29T07:41:03.153Z,102777.56
2019-03-29T07:44:10.964Z,102774.34
2019-03-29T07:47:18.899Z,102781.94
2019-03-29T07:50:35.972Z,102782.16
2019-03-29T07:53:45.114Z,102780.54
2019-03-29T07:56:52.970Z,102778.97
2019-03-29T08:00:00.754Z,102779.80
2019-03-29T08:03:08.484Z,102778.56
2019-03-29T08:06:16.255Z,102784.41
2019-03-29T08:09:24.122Z,102784.49
2019-03-29T08:12:32.088Z,102779.47
2019-03-29T08:15:38.351Z,102777.14
2019-03-29T08:18:46.114Z,102775.58
2019-03-29T08:21:53.845Z,102774.58
2019-03-29T08:25:01.524Z,102771.20
2019-03-29T08:28:09.517Z,102769.33
2019-03-29T08:31:17.310Z,102762.27
2019-03-29T08:34:36.003Z,102771.70
2019-03-29T08:37:44.052Z,102766.78
2019-03-29T08:40:51.911Z,102776.41
2019-03-29T08:43:59.744Z,102765.80
2019-03-29T08:47:07.679Z,102759.80
2019-03-29T08:50:24.802Z,102763.79
2019-03-29T08:53:32.674Z,102762.28
2019-03-29T08:56:40.625Z,102754.88
2019-03-29T08:59:57.633Z,102750.93
2019-03-29T09:03:05.682Z,102745.95
2019-03-29T09:06:13.530Z,102745.31
2019-03-29T09:09:21.659Z,102734.70
2019-03-29T09:12:29.389Z,102741.13
2019-03-29T09:15:37.348Z,102727.55
2019-03-29T09:18:45.098Z,102724.09
2019-03-29T09:22:02.278Z,102726.70
2019-03-29T09:25:10.190Z,102725.27
2019-03-29T09:28:18.063Z,102720.63
2019-03-29T09:31:35.054Z,102715.48
2019-03-29T09:34:42.965Z,102718.53
2019-03-29T09:37:50.708Z,102710.45
2019-03-29T09:41:07.838Z,102710.63
2019-03-29T09:44:15.773Z,102716.41
2019-03-29T09:47:23.448Z,102701.29
2019-03-29T09:50:40.697Z,102699.23
2019-03-29T09:53:48.400Z,102703.13
2019-03-29T09:56:56.518Z,102698.72
2019-03-29T10:00:17.999Z,102707.05
2019-03-29T10:03:14.361Z,102694.95
2019-03-29T10:06:22.209Z,102695.64
2019-03-29T10:09:30.101Z,102692.69
2019-03-29T10:12:47.011Z,102689.84
2019-03-29T10:15:54.897Z,102688.10
2019-03-29T10:19:02.824Z,102687.86
2019-03-29T10:22:20.007Z,102679.81
2019-03-29T10:25:27.804Z,102686.34
2019-03-29T10:28:35.564Z,102679.77
2019-03-29T10:31:52.582Z,102670.47
2019-03-29T10:35:00.448Z,102674.28
2019-03-29T10:38:08.322Z,102667.48
2019-03-29T10:41:25.270Z,102657.23
2019-03-29T10:44:42.063Z,102652.32
2019-03-29T10:47:50.004Z,102659.63
2019-03-29T10:50:57.809Z,102657.13
2019-03-29T10:54:14.966Z,102647.52
2019-03-29T10:57:22.746Z,102647.52
2019-03-29T11:00:38.213Z,102649.47
2019-03-29T11:03:46.091Z,102638.66
2019-03-29T11:06:53.861Z,102637.52
2019-03-29T11:10:01.791Z,102630.88
2019-03-29T11:13:18.869Z,102620.97
2019-03-29T11:16:26.812Z,102622.80
2019-03-29T11:19:34.606Z,102627.25
2019-03-29T11:22:51.795Z,102617.92
2019-03-29T11:25:59.717Z,102611.25
2019-03-29T11:29:07.393Z,102609.02
2019-03-29T11:32:24.655Z,102610.77
2019-03-29T11:35:32.498Z,102615.34
2019-03-29T11:38:40.448Z,102607.52
2019-03-29T11:41:57.482Z,102596.75
2019-03-29T11:45:06.271Z,102599.86
2019-03-29T11:48:14.097Z,102594.54
2019-03-29T11:51:21.977Z,102586.69
2019-03-29T11:54:39.012Z,102591.08
2019-03-29T11:57:46.959Z,102593.38
2019-03-29T12:00:55.046Z,102578.94
2019-03-29T12:04:02.793Z,102580.67
2019-03-29T12:07:10.635Z,102579.34
2019-03-29T12:10:27.728Z,102574.81
2019-03-29T12:13:41.414Z,102568.63
2019-03-29T12:16:45.148Z,102573.12
2019-03-29T12:20:08.372Z,102574.86
2019-03-29T12:23:16.364Z,102569.50
2019-03-29T12:26:24.240Z,102569.50
2019-03-29T12:29:32.319Z,102566.66
2019-03-29T12:32:40.247Z,102564.25
2019-03-29T12:35:46.534Z,102558.87
2019-03-29T12:38:54.230Z,102553.22
2019-03-29T12:42:11.359Z,102545.42
2019-03-29T12:45:19.128Z,102543.30
2019-03-29T12:48:27.113Z,102537.83
2019-03-29T12:51:46.653Z,102524.89
2019-03-29T12:54:53.892Z,102525.29
2019-03-29T12:58:01.562Z,102529.09
2019-03-29T13:01:18.608Z,102515.44
2019-03-29T13:04:26.480Z,102518.37
2019-03-29T13:07:34.693Z,102517.70
2019-03-29T13:10:42.829Z,102511.20
2019-03-29T13:13:50.568Z,102504.24
2019-03-29T13:16:56.637Z,102496.66
2019-03-29T13:20:04.907Z,102492.39
2019-03-29T13:23:12.865Z,102487.65
2019-03-29T13:26:20.777Z,102485.84
2019-03-29T13:29:37.849Z,102470.34
2019-03-29T13:32:45.764Z,102471.66
2019-03-29T13:35:53.617Z,102474.18
2019-03-29T13:39:10.725Z,102465.73
2019-03-29T13:42:18.490Z,102467.19
2019-03-29T13:45:27.945Z,102457.54
2019-03-29T13:48:45.009Z,102458.25
2019-03-29T13:52:02.287Z,102444.36
2019-03-29T13:55:10.885Z,102442.62
2019-03-29T13:58:18.834Z,102434.30
2019-03-29T14:01:25.582Z,102423.18
2019-03-29T14:04:33.327Z,102427.25
2019-03-29T14:07:41.087Z,102427.02
2019-03-29T14:10:58.350Z,102414.72
2019-03-29T14:14:06.139Z,102417.41
2019-03-29T14:17:14.127Z,102423.03
2019-03-29T14:20:32.352Z,102412.50
2019-03-29T14:23:39.395Z,102407.46
2019-03-29T14:26:56.408Z,102397.23
2019-03-29T14:30:13.636Z,102392.20
2019-03-29T14:33:21.638Z,102380.12
2019-03-29T14:36:29.307Z,102379.23
2019-03-29T14:39:37.406Z,102372.09
2019-03-29T14:42:45.132Z,102373.39
2019-03-29T14:46:02.163Z,102371.59
2019-03-29T14:49:09.992Z,102373.11
2019-03-29T14:52:17.740Z,102367.48
2019-03-29T14:55:34.983Z,102361.42
2019-03-29T14:58:42.935Z,102353.14
2019-03-29T15:01:50.989Z,102352.55
2019-03-29T15:04:58.841Z,102349.70
2019-03-29T15:08:06.528Z,102345.58
2019-03-29T15:11:23.828Z,102343.77
2019-03-29T15:14:31.778Z,102339.31
2019-03-29T15:17:39.620Z,102334.50
2019-03-29T15:20:56.686Z,102324.34
2019-03-29T15:24:04.500Z,102328.09
2019-03-29T15:27:12.325Z,102318.58
2019-03-29T15:30:29.606Z,102312.53
2019-03-29T15:33:37.501Z,102310.50
2019-03-29T15:36:45.244Z,102304.27
2019-03-29T15:40:02.268Z,102302.45
2019-03-29T15:43:09.951Z,102306.50
2019-03-29T15:46:17.932Z,102308.67
2019-03-29T15:49:35.111Z,102300.50
2019-03-29T15:52:42.303Z,102295.64
2019-03-29T15:55:50.102Z,102301.94
2019-03-29T15:58:57.891Z,102300.20
2019-03-29T16:02:15.193Z,102296.95
2019-03-29T16:05:23.154Z,102296.34
2019-03-29T16:08:31.076Z,102289.60
2019-03-29T16:11:48.113Z,102282.41
2019-03-29T16:14:55.974Z,102287.95
2019-03-29T16:18:03.982Z,102282.08
2019-03-29T16:21:11.828Z,102274.88
2019-03-29T16:24:19.596Z,102280.07
2019-03-29T16:27:36.758Z,102273.48
2019-03-29T16:30:44.914Z,102275.79
2019-03-29T16:33:52.764Z,102271.48
2019-03-29T16:37:00.554Z,102250.52
2019-03-29T16:40:07.043Z,102263.25
2019-03-29T16:43:23.974Z,102256.31
2019-03-29T16:46:32.083Z,102252.24
2019-03-29T16:49:40.077Z,102252.24
2019-03-29T16:52:47.933Z,102244.62
2019-03-29T16:55:55.886Z,102246.91
2019-03-29T16:59:03.678Z,102246.91
2019-03-29T17:02:11.598Z,102245.09
2019-03-29T17:05:28.852Z,102239.36
2019-03-29T17:08:36.662Z,102239.30
2019-03-29T17:11:44.440Z,102261.31
2019-03-29T17:15:01.659Z,102235.09
2019-03-29T17:18:09.333Z,102241.36
2019-03-29T17:21:17.250Z,102238.55
2019-03-29T17:24:34.501Z,102220.52
2019-03-29T17:27:42.732Z,102220.52
2019-03-29T17:30:55.748Z,102233.52
2019-03-29T17:34:03.659Z,102225.29
2019-03-29T17:37:20.794Z,102221.91
2019-03-29T17:40:28.613Z,102221.44
2019-03-29T17:43:36.378Z,102225.36
2019-03-29T17:46:53.640Z,102223.44
2019-03-29T17:50:01.390Z,102228.72
2019-03-29T17:53:09.325Z,102235.31
2019-03-29T17:56:26.856Z,102228.73
2019-03-29T17:59:34.541Z,102235.38
2019-03-29T18:02:42.555Z,102232.16
2019-03-29T18:05:50.369Z,102236.47
2019-03-29T18:08:58.295Z,102227.48
2019-03-29T18:12:15.282Z,102230.73
2019-03-29T18:15:23.298Z,102229.91
2019-03-29T18:18:31.334Z,102233.00
2019-03-29T18:21:39.098Z,102232.97
2019-03-29T18:24:47.160Z,102229.78
2019-03-29T18:28:04.063Z,102223.14
2019-03-29T18:31:11.899Z,102232.89
2019-03-29T18:34:19.816Z,102221.17
2019-03-29T18:37:36.971Z,102221.22
2019-03-29T18:40:44.821Z,102224.21
2019-03-29T18:43:52.729Z,102226.20
2019-03-29T18:47:09.677Z,102225.38
2019-03-29T18:50:17.716Z,102222.67
2019-03-29T18:53:25.989Z,102229.60
2019-03-29T18:56:33.892Z,102225.70
2019-03-29T18:59:51.247Z,102225.31
2019-03-29T19:02:59.338Z,102223.95
2019-03-29T19:06:07.192Z,102228.52
2019-03-29T19:09:15.139Z,102228.38
2019-03-29T19:12:22.966Z,102230.64
2019-03-29T19:15:40.089Z,102219.11
2019-03-29T19:18:48.007Z,102216.00
2019-03-29T19:21:55.777Z,102220.02
2019-03-29T19:25:12.946Z,102216.44
2019-03-29T19:28:19.015Z,102216.75
2019-03-29T19:31:26.866Z,102215.35
2019-03-29T19:34:44.092Z,102213.96
2019-03-29T19:37:52.173Z,102215.53
2019-03-29T19:40:59.934Z,102222.16
2019-03-29T19:44:07.861Z,102220.95
2019-03-29T19:47:15.780Z,102212.42
2019-03-29T19:50:32.767Z,102214.14
2019-03-29T19:53:40.650Z,102213.22
2019-03-29T19:56:48.550Z,102205.06
2019-03-29T20:00:06.753Z,102211.34
2019-03-29T20:03:23.960Z,102212.72
2019-03-29T20:06:32.755Z,102219.06
2019-03-29T20:09:42.036Z,102218.07
2019-03-29T20:12:50.283Z,102216.64
2019-03-29T20:15:58.209Z,102217.52
2019-03-29T20:19:05.991Z,102213.39
2019-03-29T20:22:23.155Z,102217.88
2019-03-29T20:25:30.976Z,102210.55
2019-03-29T20:28:38.938Z,102217.81
2019-03-29T20:31:55.935Z,102215.67
2019-03-29T20:35:03.887Z,102220.17
2019-03-29T20:38:11.805Z,102217.05
2019-03-29T20:41:28.814Z,102210.50
2019-03-29T20:44:36.741Z,102216.56
2019-03-29T20:47:44.980Z,102212.72
2019-03-29T20:50:52.743Z,102216.35
2019-03-29T20:54:00.679Z,102214.74
2019-03-29T20:57:17.617Z,102210.16
2019-03-29T21:00:25.980Z,102209.39
2019-03-29T21:03:43.091Z,102205.91
2019-03-29T21:06:51.099Z,102208.03
2019-03-29T21:09:58.879Z,102198.98
2019-03-29T21:13:15.954Z,102200.16
2019-03-29T21:16:24.007Z,102196.48
2019-03-29T21:19:31.868Z,102194.14
2019-03-29T21:22:39.760Z,102197.11
2019-03-29T21:25:47.595Z,102194.70
2019-03-29T21:29:04.593Z,102190.15
2019-03-29T21:32:12.441Z,102190.88
2019-03-29T21:35:20.296Z,102188.68
2019-03-29T21:38:28.664Z,102195.49
2019-03-29T21:41:36.606Z,102191.14
2019-03-29T21:44:53.476Z,102196.20
2019-03-29T21:48:16.042Z,102196.68
2019-03-29T21:51:10.970Z,102190.81
2019-03-29T21:54:18.871Z,102177.52
2019-03-29T21:57:26.718Z,102180.36
2019-03-29T22:00:43.945Z,102179.67
2019-03-29T22:03:51.887Z,102177.55
2019-03-29T22:06:59.865Z,102175.55
2019-03-29T22:10:08.472Z,102174.77
2019-03-29T22:13:25.501Z,102178.83
2019-03-29T22:16:32.035Z,102174.73
2019-03-29T22:19:39.779Z,102174.86
2019-03-29T22:22:56.602Z,102162.27
2019-03-29T22:26:04.460Z,102161.95
2019-03-29T22:29:13.089Z,102158.48
2019-03-29T22:32:21.640Z,102160.23
2019-03-29T22:35:29.334Z,102154.27
2019-03-29T22:38:37.277Z,102157.55
2019-03-29T22:41:45.300Z,102152.73
2019-03-29T22:44:53.347Z,102152.08
2019-03-29T22:48:10.258Z,102146.30
2019-03-29T22:51:18.352Z,102144.38
2019-03-29T22:54:26.171Z,102143.48
2019-03-29T22:57:33.944Z,102138.56
2019-03-29T23:00:45.268Z,102128.67
2019-03-29T23:03:53.424Z,102134.69
2019-03-29T23:07:01.272Z,102134.72
2019-03-29T23:10:09.313Z,102126.60
2019-03-29T23:13:17.145Z,102127.16
2019-03-29T23:16:34.293Z,102128.00
2019-03-29T23:19:41.947Z,102124.81
2019-03-29T23:22:49.717Z,102123.05
2019-03-29T23:25:57.448Z,102119.83
2019-03-29T23:29:04.266Z,102120.67
2019-03-29T23:32:21.279Z,102112.67
2019-03-29T23:35:29.043Z,102106.07
2019-03-29T23:38:36.861Z,102106.81
2019-03-29T23:41:54.061Z,102103.20
2019-03-29T23:45:01.912Z,102095.79
2019-03-29T23:48:09.712Z,102096.55
2019-03-29T23:51:27.224Z,102091.92
2019-03-29T23:54:34.975Z,102099.00
2019-03-29T23:57:42.935Z,102093.42
